Time;durP1;ratioP1;P1;durP2;ratioP2;P2;SDS_P1;SDS_P2;PMS_P1;PMS_P2;Temp;Humidity;BMP_temperature;BMP_pressure;BME280_temperature;BME280_humidity;BME280_pressure;Samples;Min_cycle;Max_cycle;Signal;HPM_P1;HPM_P2
2022/09/10 00:00:42;;;;;;;26.27;3.55;;;;;;;19.63;100.00;97712.22;4969862;28;20039;-54
2022/09/10 00:03:11;;;;;;;24.85;3.42;;;;;;;19.30;100.00;97708.72;4967094;28;20046;-53
2022/09/10 00:05:42;;;;;;;30.17;3.95;;;;;;;19.62;100.00;97707.88;4982989;28;20062;-54
2022/09/10 00:08:08;;;;;;;28.05;3.83;;;;;;;19.47;100.00;97706.50;4968415;28;20037;-56
2022/09/10 00:10:38;;;;;;;27.75;3.80;;;;;;;18.96;100.00;97706.16;4967299;28;20049;-53
2022/09/10 00:13:04;;;;;;;36.42;4.65;;;;;;;18.82;100.00;97709.03;4967975;28;20022;-54
2022/09/10 00:15:30;;;;;;;26.08;3.78;;;;;;;18.54;100.00;97711.19;4969366;28;20035;-54
2022/09/10 00:17:55;;;;;;;43.00;5.13;;;;;;;18.86;100.00;97705.22;4969537;28;20027;-53
2022/09/10 00:20:20;;;;;;;27.55;3.35;;;;;;;19.84;100.00;97707.81;4967957;28;20027;-56
2022/09/10 00:22:48;;;;;;;27.35;3.78;;;;;;;19.19;100.00;97690.25;4967488;28;20058;-54
2022/09/10 00:25:14;;;;;;;40.65;4.80;;;;;;;19.72;100.00;97692.94;4968751;28;20084;-54
2022/09/10 00:27:39;;;;;;;27.40;3.75;;;;;;;19.71;100.00;97693.06;4969691;28;20034;-53
2022/09/10 00:30:05;;;;;;;31.20;3.83;;;;;;;20.01;100.00;97697.59;4966488;28;20125;-54
2022/09/10 00:32:31;;;;;;;30.25;4.25;;;;;;;19.44;100.00;97700.47;4967390;28;20033;-53
2022/09/10 00:35:00;;;;;;;26.95;3.70;;;;;;;19.37;100.00;97694.03;4967926;28;20058;-53
2022/09/10 00:37:25;;;;;;;33.72;4.05;;;;;;;20.31;100.00;97694.16;4967063;28;20093;-56
2022/09/10 00:39:50;;;;;;;22.13;3.42;;;;;;;19.97;100.00;97701.50;4971182;28;20432;-56
2022/09/10 00:42:16;;;;;;;37.35;4.65;;;;;;;19.86;100.00;97701.56;4967190;28;20094;-54
2022/09/10 00:44:43;;;;;;;25.45;3.70;;;;;;;19.30;100.00;97700.78;4972676;28;20027;-53
2022/09/10 00:47:23;;;;;;;29.35;3.80;;;;;;;19.96;100.00;97694.50;4973673;28;20623;-54
2022/09/10 00:49:57;;;;;;;32.40;4.10;;;;;;;20.02;100.00;97691.34;4971232;28;20416;-54
2022/09/10 00:52:23;;;;;;;34.60;4.13;;;;;;;20.11;100.00;97687.94;4970503;28;20043;-56
2022/09/10 00:54:49;;;;;;;25.95;3.35;;;;;;;19.57;100.00;97684.44;4972093;28;20085;-54
2022/09/10 00:57:19;;;;;;;23.02;3.33;;;;;;;19.88;100.00;97686.38;4971988;28;20078;-57
2022/09/10 00:59:49;;;;;;;24.30;2.97;;;;;;;19.61;100.00;97680.59;4973097;28;20026;-53
2022/09/10 01:02:14;;;;;;;29.02;3.67;;;;;;;20.13;100.00;97682.50;4972118;28;20114;-56
2022/09/10 01:04:41;;;;;;;34.17;4.07;;;;;;;20.39;100.00;97674.97;4973635;28;20121;-55
2022/09/10 01:07:09;;;;;;;22.98;3.08;;;;;;;20.54;100.00;97672.78;4971735;28;20119;-56
2022/09/10 01:09:36;;;;;;;34.00;4.40;;;;;;;19.87;100.00;97674.97;4972470;28;20039;-56
2022/09/10 01:12:50;;;;;;;35.45;3.67;;;;;;;19.90;100.00;97681.78;4972238;28;20042;-56
2022/09/10 01:15:39;;;;;;;31.17;3.83;;;;;;;19.51;100.00;97668.25;4970487;28;20056;-53
2022/09/10 01:18:11;;;;;;;31.55;3.92;;;;;;;19.65;100.00;97670.59;4970704;28;20078;-55
2022/09/10 01:20:57;;;;;;;31.47;4.20;;;;;;;20.61;100.00;97679.28;4972139;28;20042;-55
2022/09/10 01:24:11;;;;;;;25.98;3.20;;;;;;;19.97;100.00;97689.09;4973038;28;20262;-54
2022/09/10 01:26:58;;;;;;;30.85;3.78;;;;;;;19.86;100.00;97677.72;4959059;28;20107;-53
2022/09/10 01:29:43;;;;;;;25.45;3.45;;;;;;;20.36;100.00;97675.22;4971597;28;20030;-53
2022/09/10 01:32:14;;;;;;;26.10;3.55;;;;;;;20.53;100.00;97682.56;4970071;28;20050;-54
2022/09/10 01:35:05;;;;;;;25.13;3.10;;;;;;;20.79;100.00;97676.81;4970152;28;20628;-53
2022/09/10 01:37:34;;;;;;;27.70;3.50;;;;;;;20.12;100.00;97676.34;4968936;28;20043;-53
2022/09/10 01:40:02;;;;;;;34.03;4.20;;;;;;;20.49;100.00;97677.66;4971294;28;20041;-54
2022/09/10 01:42:28;;;;;;;29.30;3.70;;;;;;;19.94;100.00;97676.13;4969516;28;20034;-53
2022/09/10 01:44:56;;;;;;;34.42;4.40;;;;;;;20.15;100.00;97673.44;4973409;28;20049;-52
2022/09/10 01:47:34;;;;;;;24.88;3.20;;;;;;;20.78;100.00;97667.19;4973168;28;20050;-53
2022/09/10 01:50:18;;;;;;;31.65;4.18;;;;;;;20.29;100.00;97668.78;4972669;28;20038;-52
2022/09/10 01:53:29;;;;;;;30.73;3.70;;;;;;;20.29;100.00;97674.06;4974091;28;20126;-54
2022/09/10 01:56:14;;;;;;;31.38;4.18;;;;;;;20.05;100.00;97667.25;4979535;28;20412;-53
2022/09/10 01:58:42;;;;;;;30.73;3.75;;;;;;;19.86;100.00;97669.78;4971160;28;20034;-53
2022/09/10 02:01:23;;;;;;;46.17;5.35;;;;;;;20.78;100.00;97661.88;4972117;28;20050;-56
2022/09/10 02:03:55;;;;;;;22.90;3.20;;;;;;;20.46;100.00;97670.81;4971247;28;20034;-53
2022/09/10 02:06:26;;;;;;;27.50;3.78;;;;;;;20.15;100.00;97668.16;4973604;28;20531;-56
2022/09/10 02:08:53;;;;;;;20.85;3.20;;;;;;;20.20;100.00;97663.31;4971481;28;20081;-53
2022/09/10 02:11:20;;;;;;;26.48;3.70;;;;;;;19.61;100.00;97670.00;4969867;28;20145;-54
2022/09/10 02:13:45;;;;;;;32.25;4.15;;;;;;;19.91;100.00;97678.19;4971505;28;20501;-53
2022/09/10 02:16:36;;;;;;;38.47;4.57;;;;;;;19.58;100.00;97672.06;4969895;28;20096;-55
2022/09/10 02:19:03;;;;;;;23.63;3.38;;;;;;;20.33;100.00;97665.75;4965236;28;20034;-54
2022/09/10 02:21:30;;;;;;;21.38;3.08;;;;;;;19.49;100.00;97670.19;4970086;28;20094;-55
2022/09/10 02:24:04;;;;;;;24.55;3.35;;;;;;;19.16;100.00;97674.63;4970755;28;20030;-55
2022/09/10 02:26:32;;;;;;;26.67;3.55;;;;;;;20.18;100.00;97670.56;4970264;28;20631;-55
2022/09/10 02:28:59;;;;;;;29.27;3.78;;;;;;;20.16;100.00;97664.56;4971408;28;20583;-52
2022/09/10 02:31:24;;;;;;;35.22;4.32;;;;;;;19.98;100.00;97671.41;4970833;28;20584;-53
2022/09/10 02:33:50;;;;;;;28.77;3.72;;;;;;;19.53;100.00;97664.50;4972178;28;20023;-54
2022/09/10 02:36:16;;;;;;;30.33;4.20;;;;;;;19.81;100.00;97663.09;4970594;28;20525;-53
2022/09/10 02:38:41;;;;;;;26.58;3.70;;;;;;;20.01;100.00;97655.25;4972032;28;20035;-52
2022/09/10 02:41:08;;;;;;;39.55;4.57;;;;;;;20.61;100.00;97658.06;4969898;28;20031;-52
2022/09/10 02:43:36;;;;;;;35.63;4.40;;;;;;;20.25;100.00;97656.78;4971048;28;20026;-53
2022/09/10 02:46:06;;;;;;;24.52;3.63;;;;;;;20.10;100.00;97654.47;4970980;28;20405;-56
2022/09/10 02:48:31;;;;;;;36.28;4.18;;;;;;;19.73;100.00;97657.59;4969656;28;20058;-54
2022/09/10 02:50:56;;;;;;;32.63;4.20;;;;;;;20.14;100.00;97655.88;4970733;28;20057;-52
2022/09/10 02:53:22;;;;;;;27.75;3.60;;;;;;;19.91;100.00;97654.38;4969748;28;20134;-53
2022/09/10 02:55:47;;;;;;;31.02;4.15;;;;;;;19.87;100.00;97652.94;4971273;28;20077;-54
2022/09/10 02:58:15;;;;;;;27.50;3.50;;;;;;;20.18;100.00;97657.31;4971288;28;20034;-56
2022/09/10 03:00:41;;;;;;;41.30;4.80;;;;;;;20.31;100.00;97656.22;4969881;28;20452;-55
2022/09/10 03:03:07;;;;;;;26.70;3.65;;;;;;;19.97;100.00;97656.50;4971708;28;20022;-53
2022/09/10 03:05:32;;;;;;;29.23;3.63;;;;;;;19.99;100.00;97662.50;4969148;28;20042;-54
2022/09/10 03:07:59;;;;;;;24.17;3.30;;;;;;;20.11;100.00;97666.75;4968790;28;20034;-53
2022/09/10 03:10:25;;;;;;;32.42;3.85;;;;;;;19.99;100.00;97667.78;4969327;28;20116;-52
2022/09/10 03:12:52;;;;;;;31.98;4.38;;;;;;;19.62;100.00;97665.56;4969930;28;20118;-52
2022/09/10 03:15:19;;;;;;;26.40;3.58;;;;;;;20.25;100.00;97662.06;4968784;28;20117;-54
2022/09/10 03:17:45;;;;;;;27.63;3.75;;;;;;;19.82;100.00;97659.47;4984086;28;20978;-56
2022/09/10 03:20:11;;;;;;;31.88;3.90;;;;;;;19.87;100.00;97660.88;4969950;28;20484;-55
2022/09/10 03:22:37;;;;;;;29.88;4.03;;;;;;;19.84;100.00;97667.28;4969480;28;20031;-54
2022/09/10 03:25:03;;;;;;;34.28;4.20;;;;;;;20.79;100.00;97660.94;4969579;28;20025;-54
2022/09/10 03:27:29;;;;;;;27.80;3.50;;;;;;;20.41;100.00;97659.78;4970270;28;20142;-53
2022/09/10 03:29:54;;;;;;;34.25;4.22;;;;;;;19.96;100.00;97662.75;4969124;28;20165;-54
2022/09/10 03:32:20;;;;;;;30.60;3.75;;;;;;;20.08;100.00;97666.16;4968166;28;20544;-53
2022/09/10 03:34:45;;;;;;;29.67;3.88;;;;;;;20.44;100.00;97659.53;4968604;28;20041;-54
2022/09/10 03:37:10;;;;;;;41.00;4.75;;;;;;;20.37;100.00;97661.03;4968856;28;20030;-53
2022/09/10 03:39:36;;;;;;;33.05;4.15;;;;;;;19.97;100.00;97664.44;4969025;28;20037;-53
2022/09/10 03:42:04;;;;;;;30.33;4.00;;;;;;;20.33;100.00;97652.50;4969650;28;20092;-53
2022/09/10 03:44:32;;;;;;;29.85;4.18;;;;;;;19.07;100.00;97666.47;4965700;28;20059;-53
2022/09/10 03:47:00;;;;;;;29.98;3.92;;;;;;;19.43;100.00;97664.44;4969047;28;20028;-52
2022/09/10 03:49:26;;;;;;;29.10;3.75;;;;;;;19.58;100.00;97661.50;4970258;28;20581;-53
2022/09/10 03:51:52;;;;;;;28.40;3.75;;;;;;;19.68;100.00;97669.50;4970753;28;20165;-54
2022/09/10 03:54:18;;;;;;;37.42;4.35;;;;;;;19.36;100.00;97657.97;4968725;28;20027;-55
2022/09/10 03:56:43;;;;;;;31.27;3.80;;;;;;;20.10;100.00;97659.75;4969877;28;20039;-56
2022/09/10 03:59:08;;;;;;;22.98;3.30;;;;;;;19.68;100.00;97659.75;4968409;28;20073;-56
2022/09/10 04:01:34;;;;;;;36.47;4.35;;;;;;;20.06;100.00;97663.66;4965809;28;20039;-53
2022/09/10 04:04:00;;;;;;;26.33;3.80;;;;;;;19.10;100.00;97662.75;4969281;28;20023;-55
2022/09/10 04:06:25;;;;;;;36.50;4.28;;;;;;;18.41;100.00;97662.94;4966751;28;20735;-55
2022/09/10 04:08:53;;;;;;;26.05;3.22;;;;;;;18.99;100.00;97662.78;4970456;28;20053;-55
2022/09/10 04:11:19;;;;;;;32.45;3.83;;;;;;;19.75;100.00;97655.66;4969187;28;20038;-53
2022/09/10 04:13:47;;;;;;;31.95;3.83;;;;;;;18.98;100.00;97661.09;4967750;28;20720;-56
2022/09/10 04:16:15;;;;;;;27.73;3.70;;;;;;;19.67;100.00;97663.38;4969196;28;20043;-55
2022/09/10 04:18:40;;;;;;;38.42;4.32;;;;;;;19.10;100.00;97665.41;4971062;28;20023;-54
2022/09/10 04:21:06;;;;;;;36.83;4.35;;;;;;;19.10;100.00;97661.91;4986767;28;20050;-55
2022/09/10 04:23:32;;;;;;;38.65;4.53;;;;;;;19.16;100.00;97669.34;4973545;28;20527;-53
2022/09/10 04:25:57;;;;;;;26.83;3.53;;;;;;;19.52;100.00;97659.34;4972286;28;20039;-53
2022/09/10 04:28:23;;;;;;;26.42;3.42;;;;;;;20.03;100.00;97663.91;4971471;28;20023;-53
2022/09/10 04:30:49;;;;;;;41.78;4.18;;;;;;;19.53;100.00;97666.31;4973341;28;20069;-53
2022/09/10 04:33:15;;;;;;;30.52;3.95;;;;;;;19.57;100.00;97667.75;4974068;28;20018;-53
2022/09/10 04:35:41;;;;;;;33.72;4.10;;;;;;;19.54;100.00;97665.38;4971313;28;20050;-52
2022/09/10 04:38:07;;;;;;;33.00;3.95;;;;;;;19.65;100.00;97665.31;4973977;28;20040;-53
2022/09/10 04:40:33;;;;;;;33.47;3.90;;;;;;;19.04;100.00;97664.09;4973172;28;20039;-53
2022/09/10 04:42:58;;;;;;;32.47;3.85;;;;;;;20.06;100.00;97666.28;4973978;28;20034;-53
2022/09/10 04:45:24;;;;;;;29.20;3.72;;;;;;;19.65;100.00;97668.78;4970813;28;20106;-52
2022/09/10 04:47:51;;;;;;;37.90;4.57;;;;;;;19.67;100.00;97667.81;4971963;28;20578;-52
2022/09/10 04:50:16;;;;;;;32.10;3.90;;;;;;;19.07;100.00;97676.22;4974215;28;20586;-53
2022/09/10 04:52:42;;;;;;;23.30;3.20;;;;;;;19.02;100.00;97679.25;4972952;28;20047;-52
2022/09/10 04:55:10;;;;;;;29.25;3.67;;;;;;;19.11;100.00;97682.09;4974486;28;20019;-55
2022/09/10 04:57:36;;;;;;;25.73;3.67;;;;;;;18.94;100.00;97692.22;4973584;28;20036;-53
2022/09/10 05:00:07;;;;;;;33.38;3.95;;;;;;;18.79;100.00;97685.50;4972687;28;20412;-53
2022/09/10 05:02:33;;;;;;;28.13;3.67;;;;;;;18.53;100.00;97693.69;4985990;28;20060;-53
2022/09/10 05:04:58;;;;;;;37.08;4.38;;;;;;;18.55;100.00;97685.63;4972605;28;20038;-53
2022/09/10 05:07:24;;;;;;;25.13;3.33;;;;;;;18.72;100.00;97686.94;4972880;28;20230;-52
2022/09/10 05:09:50;;;;;;;29.92;3.83;;;;;;;18.64;100.00;97690.19;4975568;28;20030;-54
2022/09/10 05:12:18;;;;;;;32.92;4.15;;;;;;;19.19;100.00;97690.25;4970071;28;20034;-52
2022/09/10 05:14:44;;;;;;;29.83;3.88;;;;;;;18.88;100.00;97682.97;4972351;28;20076;-55
2022/09/10 05:17:10;;;;;;;42.80;4.80;;;;;;;19.02;100.00;97686.31;4969961;28;20051;-55
2022/09/10 05:19:35;;;;;;;27.95;3.60;;;;;;;19.58;100.00;97690.59;4972431;28;20708;-56
2022/09/10 05:22:00;;;;;;;30.05;3.95;;;;;;;19.66;100.00;97685.50;4971578;28;20133;-56
2022/09/10 05:24:26;;;;;;;31.02;4.22;;;;;;;19.03;100.00;97685.38;4971315;28;20117;-55
2022/09/10 05:26:51;;;;;;;26.60;3.92;;;;;;;18.78;100.00;97689.09;4971821;28;20034;-55
2022/09/10 05:29:17;;;;;;;42.88;5.07;;;;;;;18.63;100.00;97699.91;4972811;28;20018;-56
2022/09/10 05:31:43;;;;;;;32.67;4.15;;;;;;;19.18;100.00;97693.84;4971080;28;21010;-54
2022/09/10 05:34:08;;;;;;;33.65;4.15;;;;;;;19.23;100.00;97702.25;4972401;28;20034;-55
2022/09/10 05:36:34;;;;;;;26.88;3.70;;;;;;;19.31;100.00;97699.81;4970614;28;20043;-55
2022/09/10 05:39:02;;;;;;;25.27;3.65;;;;;;;19.81;100.00;97705.44;4972660;28;20037;-55
2022/09/10 05:41:29;;;;;;;33.10;4.68;;;;;;;19.81;100.00;97713.38;4970667;28;20141;-53
2022/09/10 05:43:55;;;;;;;25.20;3.92;;;;;;;19.49;100.00;97707.22;4972171;28;20100;-53
2022/09/10 05:46:23;;;;;;;37.35;4.80;;;;;;;19.60;100.00;97704.53;4970070;28;20539;-54
2022/09/10 05:48:49;;;;;;;28.17;3.70;;;;;;;19.98;100.00;97708.47;4986586;28;20068;-55
2022/09/10 05:51:15;;;;;;;34.33;4.60;;;;;;;19.54;100.00;97715.63;4970312;28;20099;-53
2022/09/10 05:53:40;;;;;;;35.65;5.22;;;;;;;19.61;100.00;97717.63;4971346;28;20038;-54
2022/09/10 05:56:06;;;;;;;33.05;4.82;;;;;;;19.63;100.00;97715.69;4971166;28;20142;-53
2022/09/10 05:58:33;;;;;;;41.90;5.18;;;;;;;20.19;100.00;97717.22;4970109;28;20058;-54
2022/09/10 06:00:59;;;;;;;39.85;7.40;;;;;;;19.98;100.00;97716.41;4970188;28;20042;-53
2022/09/10 06:03:24;;;;;;;30.58;6.35;;;;;;;19.61;100.00;97716.78;4970082;28;20026;-53
2022/09/10 06:05:50;;;;;;;32.40;5.90;;;;;;;20.29;100.00;97711.16;4972766;28;20766;-53
2022/09/10 06:08:16;;;;;;;29.35;4.78;;;;;;;20.59;100.00;97713.81;4971750;28;20102;-53
2022/09/10 06:10:42;;;;;;;42.17;5.65;;;;;;;20.66;100.00;97713.31;4972534;28;20092;-56
2022/09/10 06:13:10;;;;;;;27.88;4.18;;;;;;;20.42;100.00;97717.09;4972213;28;20814;-57
2022/09/10 06:15:36;;;;;;;56.25;6.38;;;;;;;20.06;100.00;97724.53;4971680;28;20038;-53
2022/09/10 06:18:02;;;;;;;31.88;4.35;;;;;;;20.26;100.00;97719.38;4972005;28;20551;-54
2022/09/10 06:20:28;;;;;;;34.47;4.18;;;;;;;20.53;100.00;97714.34;4970431;28;20042;-53
2022/09/10 06:22:53;;;;;;;31.40;3.95;;;;;;;20.48;100.00;97716.56;4971798;28;20116;-53
2022/09/10 06:25:19;;;;;;;26.80;3.53;;;;;;;20.60;100.00;97715.53;4970612;28;20023;-54
2022/09/10 06:27:45;;;;;;;31.35;3.88;;;;;;;20.94;100.00;97728.47;4970690;28;20435;-53
2022/09/10 06:30:11;;;;;;;32.08;4.43;;;;;;;20.69;100.00;97723.66;4969932;28;20386;-53
2022/09/10 06:32:38;;;;;;;28.60;3.85;;;;;;;21.43;100.00;97723.28;4971532;28;20077;-53
2022/09/10 06:35:04;;;;;;;39.63;4.63;;;;;;;20.67;100.00;97723.78;4969533;28;20054;-53
2022/09/10 06:37:33;;;;;;;29.08;3.60;;;;;;;20.93;100.00;97716.19;4970110;28;20047;-56
2022/09/10 06:40:00;;;;;;;35.28;4.35;;;;;;;20.76;100.00;97719.50;4970818;28;20114;-53
2022/09/10 06:42:25;;;;;;;35.20;4.25;;;;;;;21.38;100.00;97713.06;4968040;28;20386;-53
2022/09/10 06:44:51;;;;;;;20.88;3.10;;;;;;;;;;4971149;28;20574;-53
2022/09/10 06:47:16;;;;;;;25.80;3.38;;;;;;;21.26;100.00;97719.47;4968378;28;20508;-53
2022/09/10 06:49:41;;;;;;;27.15;3.83;;;;;;;20.49;100.00;97720.88;4971212;28;20030;-54
2022/09/10 06:52:07;;;;;;;37.70;5.75;;;;;;;21.20;100.00;97717.38;4970443;28;20042;-54
2022/09/10 06:54:32;;;;;;;29.15;3.67;;;;;;;21.21;100.00;97721.72;4971848;28;20034;-53
2022/09/10 06:56:57;;;;;;;24.55;3.20;;;;;;;21.57;100.00;97719.41;4970136;28;20046;-54
2022/09/10 06:59:23;;;;;;;30.55;3.85;;;;;;;21.63;100.00;97718.84;4969700;28;20023;-55
2022/09/10 07:01:48;;;;;;;30.85;3.90;;;;;;;21.99;100.00;97719.13;4969904;28;20053;-55
2022/09/10 07:04:13;;;;;;;32.83;4.25;;;;;;;21.43;100.00;97727.75;4969128;28;20038;-55
2022/09/10 07:06:39;;;;;;;23.67;3.30;;;;;;;22.09;100.00;97719.94;4971485;28;20039;-54
2022/09/10 07:09:04;;;;;;;29.00;3.60;;;;;;;22.02;100.00;97724.16;4969951;28;20899;-54
2022/09/10 07:11:31;;;;;;;31.27;3.83;;;;;;;21.69;100.00;97731.56;4968820;28;20831;-54
2022/09/10 07:13:57;;;;;;;25.80;3.50;;;;;;;21.69;100.00;97723.59;4970831;28;20034;-54
2022/09/10 07:16:25;;;;;;;31.23;3.90;;;;;;;21.06;100.00;97741.63;4971247;28;20030;-54
2022/09/10 07:18:53;;;;;;;25.02;3.13;;;;;;;21.58;100.00;97733.50;4970093;28;20030;-54
2022/09/10 07:21:20;;;;;;;26.40;3.45;;;;;;;22.45;100.00;97727.31;4969170;28;20149;-55
2022/09/10 07:23:50;;;;;;;22.35;3.25;;;;;;;21.26;100.00;97738.03;4970509;28;20030;-53
2022/09/10 07:26:18;;;;;;;29.67;3.80;;;;;;;21.81;100.00;97731.44;4968264;28;20046;-55
2022/09/10 07:28:44;;;;;;;26.95;3.40;;;;;;;21.35;100.00;97736.38;4970489;28;20039;-53
2022/09/10 07:31:22;;;;;;;25.67;3.55;;;;;;;21.95;100.00;97738.97;4968693;28;20057;-54
2022/09/10 07:33:48;;;;;;;32.70;3.55;;;;;;;21.37;100.00;97739.75;4968078;28;20061;-55
2022/09/10 07:36:15;;;;;;;23.98;3.25;;;;;;;20.87;100.00;97743.25;4968906;28;20062;-56
2022/09/10 07:38:41;;;;;;;30.73;3.72;;;;;;;21.69;100.00;97744.00;4967912;28;20652;-54
2022/09/10 07:41:10;;;;;;;36.45;4.43;;;;;;;21.58;100.00;97747.63;4969864;28;20524;-54
2022/09/10 07:43:38;;;;;;;26.83;3.63;;;;;;;21.88;100.00;97738.69;4969708;28;20038;-55
2022/09/10 07:46:11;;;;;;;23.05;3.15;;;;;;;21.54;100.00;97752.38;4969449;28;20034;-53
2022/09/10 07:48:37;;;;;;;24.63;3.47;;;;;;;21.22;100.00;97751.72;4970231;28;20093;-54
2022/09/10 07:51:05;;;;;;;33.95;4.20;;;;;;;21.14;100.00;97755.06;4969125;28;20035;-53
2022/09/10 07:53:31;;;;;;;22.42;3.03;;;;;;;21.15;100.00;97752.25;4969852;28;20074;-54
2022/09/10 07:56:06;;;;;;;33.97;4.38;;;;;;;21.53;100.00;97758.66;4967984;28;20121;-54
2022/09/10 07:58:34;;;;;;;20.40;2.92;;;;;;;21.60;100.00;97758.13;4969177;28;20030;-54
2022/09/10 08:01:01;;;;;;;38.15;4.55;;;;;;;20.74;100.00;97754.06;4968563;28;20047;-54
2022/09/10 08:03:27;;;;;;;23.73;3.13;;;;;;;21.34;100.00;97762.09;4968241;28;20046;-53
2022/09/10 08:05:53;;;;;;;31.90;3.95;;;;;;;20.98;100.00;97761.69;4971453;28;20046;-52
2022/09/10 08:08:19;;;;;;;25.52;3.33;;;;;;;21.19;100.00;97771.38;4967076;28;20111;-53
2022/09/10 08:10:47;;;;;;;27.00;3.65;;;;;;;21.74;100.00;97763.84;4970655;28;20063;-55
2022/09/10 08:13:13;;;;;;;26.63;3.75;;;;;;;21.37;100.00;97766.28;4982085;28;20023;-53
2022/09/10 08:15:43;;;;;;;23.67;3.28;;;;;;;21.71;100.00;97769.44;4970447;28;20041;-52
2022/09/10 08:18:12;;;;;;;34.13;4.13;;;;;;;21.76;100.00;97771.66;4968946;28;20033;-52
2022/09/10 08:20:39;;;;;;;31.73;3.80;;;;;;;21.96;100.00;97761.88;4968749;28;20057;-54
2022/09/10 08:23:05;;;;;;;35.05;4.25;;;;;;;21.20;100.00;97773.06;4968442;28;20117;-53
2022/09/10 08:25:32;;;;;;;25.05;3.45;;;;;;;21.94;100.00;97774.47;4969931;28;20535;-53
2022/09/10 08:27:57;;;;;;;21.50;3.03;;;;;;;21.81;100.00;97780.03;4967527;28;20031;-52
2022/09/10 08:30:23;;;;;;;23.13;3.03;;;;;;;21.91;100.00;97775.59;4967270;28;20049;-53
2022/09/10 08:32:48;;;;;;;25.48;3.33;;;;;;;22.26;100.00;97781.34;4968185;28;20038;-54
2022/09/10 08:35:13;;;;;;;43.83;4.38;;;;;;;23.37;100.00;97779.69;4967596;28;20045;-54
2022/09/10 08:37:39;;;;;;;21.83;3.22;;;;;;;22.31;100.00;97781.72;4968873;28;20027;-54
2022/09/10 08:40:05;;;;;;;28.90;3.70;;;;;;;22.35;100.00;97779.63;4968597;28;20034;-55
2022/09/10 08:42:51;;;;;;;27.05;3.53;;;;;;;21.72;100.00;97786.19;4968536;28;20047;-53
2022/09/10 08:45:22;;;;;;;29.05;3.83;;;;;;;21.95;100.00;97792.06;4969204;28;20023;-53
2022/09/10 08:48:05;;;;;;;32.97;4.00;;;;;;;21.78;100.00;97796.28;4968072;28;20030;-54
2022/09/10 08:50:40;;;;;;;34.85;4.15;;;;;;;21.71;100.00;97792.50;4964755;28;20034;-53
2022/09/10 08:53:17;;;;;;;28.58;3.72;;;;;;;22.07;100.00;97785.63;4969386;28;20073;-55
2022/09/10 08:55:43;;;;;;;24.25;3.20;;;;;;;21.96;100.00;97799.03;4970061;28;20129;-55
2022/09/10 08:58:17;;;;;;;25.77;3.22;;;;;;;21.68;100.00;97800.72;4983106;28;20444;-57
2022/09/10 09:00:44;;;;;;;21.08;2.97;;;;;;;21.95;100.00;97800.03;4967421;28;20524;-56
2022/09/10 09:03:21;;;;;;;27.95;3.63;;;;;;;22.16;100.00;97788.44;4967671;28;20026;-55
2022/09/10 09:05:54;;;;;;;25.70;3.22;;;;;;;21.67;100.00;97799.88;4968680;28;20053;-54
2022/09/10 09:08:24;;;;;;;30.00;3.53;;;;;;;21.79;100.00;97802.41;4972277;28;20496;-53
2022/09/10 09:11:05;;;;;;;20.08;2.97;;;;;;;21.54;100.00;97809.91;4969778;28;20527;-52
2022/09/10 09:13:49;;;;;;;33.10;4.07;;;;;;;21.92;100.00;97808.28;4971291;28;20023;-55
2022/09/10 09:16:42;;;;;;;33.15;3.50;;;;;;;21.97;100.00;97806.06;4972093;28;20113;-54
2022/09/10 09:19:16;;;;;;;28.73;3.63;;;;;;;21.22;100.00;97813.56;4973358;28;20381;-54
2022/09/10 09:21:55;;;;;;;32.80;3.92;;;;;;;21.28;100.00;97815.66;4970636;28;20046;-54
2022/09/10 09:24:52;;;;;;;21.77;3.03;;;;;;;21.61;100.00;97813.69;4970904;28;20104;-55
2022/09/10 09:27:19;;;;;;;27.13;4.47;;;;;;;21.32;100.00;97810.94;4971236;28;20129;-53
2022/09/10 09:30:02;;;;;;;27.83;3.70;;;;;;;22.04;100.00;97811.66;4970619;28;20045;-53
2022/09/10 09:32:32;;;;;;;29.13;3.50;;;;;;;22.09;100.00;97812.03;4968713;28;20050;-53
2022/09/10 09:35:23;;;;;;;26.30;3.50;;;;;;;22.18;100.00;97813.03;4971040;28;20027;-54
2022/09/10 09:37:57;;;;;;;26.67;3.42;;;;;;;22.34;100.00;97802.69;4973710;28;20757;-55
2022/09/10 09:40:36;;;;;;;25.10;3.47;;;;;;;22.58;100.00;97798.75;4971838;28;20808;-54
2022/09/10 09:43:14;;;;;;;30.60;3.90;;;;;;;22.11;100.00;97795.00;4972202;28;20044;-53
2022/09/10 09:45:42;;;;;;;20.60;3.13;;;;;;;22.36;100.00;97792.75;4971909;28;20034;-53
2022/09/10 09:48:14;;;;;;;26.60;3.53;;;;;;;22.52;100.00;97782.38;4981327;28;20509;-53
2022/09/10 09:50:44;;;;;;;22.45;3.17;;;;;;;22.49;100.00;97787.97;4970702;28;20158;-54
2022/09/10 09:53:20;;;;;;;23.65;3.33;;;;;;;22.84;100.00;97786.47;4968558;28;20034;-53
2022/09/10 09:55:50;;;;;;;26.08;3.45;;;;;;;23.03;100.00;97782.91;4970915;28;20031;-53
2022/09/10 09:58:25;;;;;;;21.83;3.13;;;;;;;23.63;100.00;97774.47;4971134;28;20076;-56
2022/09/10 10:01:03;;;;;;;18.98;3.03;;;;;;;24.44;100.00;97778.88;4971292;28;20044;-54
2022/09/10 10:03:31;;;;;;;17.42;2.72;;;;;;;23.78;100.00;97773.94;4970292;28;20077;-55
2022/09/10 10:06:16;;;;;;;24.90;3.35;;;;;;;24.23;100.00;97771.22;4968035;28;20031;-54
2022/09/10 10:08:45;;;;;;;22.23;3.05;;;;;;;23.94;100.00;97771.47;4971571;28;20027;-54
2022/09/10 10:11:19;;;;;;;29.25;3.85;;;;;;;24.00;100.00;97768.19;4971755;28;20046;-57
2022/09/10 10:13:45;;;;;;;21.67;3.03;;;;;;;24.39;100.00;97767.84;4970404;28;20030;-56
2022/09/10 10:16:22;;;;;;;26.63;3.60;;;;;;;23.16;100.00;97761.34;4969191;28;20053;-53
2022/09/10 10:18:48;;;;;;;20.58;2.90;;;;;;;24.31;100.00;97766.94;4971931;28;20030;-53
2022/09/10 10:21:27;;;;;;;24.33;3.65;;;;;;;24.15;100.00;97768.50;4967842;28;20542;-54
2022/09/10 10:23:53;;;;;;;21.83;3.08;;;;;;;23.86;100.00;97766.09;4970791;28;20019;-53
2022/09/10 10:26:19;;;;;;;26.42;3.42;;;;;;;22.80;100.00;97766.50;4971293;28;20511;-54
2022/09/10 10:28:50;;;;;;;22.95;3.30;;;;;;;22.88;100.00;97763.94;4971291;28;20033;-56
2022/09/10 10:31:16;;;;;;;23.25;3.28;;;;;;;23.12;100.00;97765.25;4970973;28;20034;-53
2022/09/10 10:34:07;;;;;;;16.77;2.70;;;;;;;23.06;100.00;97760.53;4971561;28;20038;-52
2022/09/10 10:36:42;;;;;;;25.30;3.60;;;;;;;22.86;100.00;97771.22;4970970;28;20093;-52
2022/09/10 10:39:33;;;;;;;21.08;2.80;;;;;;;22.77;100.00;97761.44;4971774;28;20449;-53
2022/09/10 10:42:14;;;;;;;23.50;3.40;;;;;;;22.51;100.00;97777.22;4969304;28;20035;-53
2022/09/10 10:44:51;;;;;;;24.63;3.38;;;;;;;22.39;100.00;97773.88;4971780;28;20042;-53
2022/09/10 10:47:43;;;;;;;26.45;3.58;;;;;;;22.06;100.00;97773.34;4969440;28;20035;-53
2022/09/10 10:50:14;;;;;;;29.55;3.85;;;;;;;22.83;100.00;97776.00;4971865;28;20037;-55
2022/09/10 10:53:02;;;;;;;27.80;3.90;;;;;;;22.61;100.00;97780.69;4969664;28;20691;-55
2022/09/10 10:55:50;;;;;;;31.75;4.13;;;;;;;22.37;100.00;97778.50;4969858;28;20180;-52
2022/09/10 10:58:54;;;;;;;26.88;3.58;;;;;;;21.70;100.00;97786.31;4971332;28;20037;-53
2022/09/10 11:01:23;;;;;;;33.35;4.15;;;;;;;22.36;100.00;97776.81;4969440;28;20050;-54
2022/09/10 11:03:56;;;;;;;25.50;3.75;;;;;;;21.73;100.00;97777.25;4968733;28;20026;-53
2022/09/10 11:06:26;;;;;;;28.38;3.78;;;;;;;22.81;100.00;97783.28;4969958;28;20043;-55
2022/09/10 11:09:06;;;;;;;30.42;4.25;;;;;;;22.33;100.00;97777.09;4970186;28;20988;-54
2022/09/10 11:11:43;;;;;;;23.40;3.40;;;;;;;22.30;100.00;97775.56;4968081;28;20125;-56
2022/09/10 11:14:26;;;;;;;25.83;3.42;;;;;;;22.33;100.00;97769.13;4987059;28;20069;-54
2022/09/10 11:16:59;;;;;;;32.30;4.35;;;;;;;22.36;100.00;97768.84;4969306;28;20102;-54
2022/09/10 11:19:39;;;;;;;24.38;3.47;;;;;;;22.18;100.00;97770.53;4968853;28;20029;-54
2022/09/10 11:22:13;;;;;;;24.85;3.30;;;;;;;22.94;100.00;97766.97;4968367;28;20125;-54
2022/09/10 11:24:49;;;;;;;24.17;3.50;;;;;;;22.98;100.00;97757.75;4968287;28;20030;-54
2022/09/10 11:27:26;;;;;;;20.63;3.20;;;;;;;22.64;100.00;97763.59;4968141;28;20038;-54
2022/09/10 11:30:02;;;;;;;29.23;3.97;;;;;;;22.30;100.00;97753.50;4968514;28;20045;-53